sensor_id;sensor_type;location;lat;lon;timestamp;P1;durP1;ratioP1;P2;durP2;ratioP2
75441;SDS011;64019;48.312;14.226;2022-10-30T00:02:07;39.10;;;11.17;;
75441;SDS011;64019;48.312;14.226;2022-10-30T00:04:33;31.50;;;11.97;;
75441;SDS011;64019;48.312;14.226;2022-10-30T00:06:58;38.60;;;12.00;;
75441;SDS011;64019;48.312;14.226;2022-10-30T00:09:24;28.93;;;10.73;;
75441;SDS011;64019;48.312;14.226;2022-10-30T00:11:50;38.27;;;12.07;;
75441;SDS011;64019;48.312;14.226;2022-10-30T00:14:15;26.97;;;11.60;;
75441;SDS011;64019;48.312;14.226;2022-10-30T00:16:42;35.03;;;10.73;;
75441;SDS011;64019;48.312;14.226;2022-10-30T00:19:08;22.47;;;10.60;;
75441;SDS011;64019;48.312;14.226;2022-10-30T00:21:33;25.83;;;11.17;;
75441;SDS011;64019;48.312;14.226;2022-10-30T00:23:59;19.07;;;10.10;;
75441;SDS011;64019;48.312;14.226;2022-10-30T00:26:24;24.83;;;11.73;;
75441;SDS011;64019;48.312;14.226;2022-10-30T00:28:52;25.50;;;11.50;;
75441;SDS011;64019;48.312;14.226;2022-10-30T00:31:19;24.10;;;10.70;;
75441;SDS011;64019;48.312;14.226;2022-10-30T00:33:52;26.03;;;10.20;;
75441;SDS011;64019;48.312;14.226;2022-10-30T00:36:18;21.37;;;10.03;;
75441;SDS011;64019;48.312;14.226;2022-10-30T00:38:45;22.10;;;9.33;;
75441;SDS011;64019;48.312;14.226;2022-10-30T00:41:17;25.53;;;10.70;;
75441;SDS011;64019;48.312;14.226;2022-10-30T00:43:46;21.20;;;11.00;;
75441;SDS011;64019;48.312;14.226;2022-10-30T00:51:23;40.20;;;11.87;;
75441;SDS011;64019;48.312;14.226;2022-10-30T00:53:50;23.57;;;11.37;;
75441;SDS011;64019;48.312;14.226;2022-10-30T00:56:18;32.17;;;12.27;;
75441;SDS011;64019;48.312;14.226;2022-10-30T00:58:48;39.80;;;12.77;;
75441;SDS011;64019;48.312;14.226;2022-10-30T01:01:18;63.83;;;11.33;;
75441;SDS011;64019;48.312;14.226;2022-10-30T01:03:48;55.53;;;11.10;;
75441;SDS011;64019;48.312;14.226;2022-10-30T01:06:19;35.77;;;11.37;;
75441;SDS011;64019;48.312;14.226;2022-10-30T01:08:46;46.20;;;11.37;;
75441;SDS011;64019;48.312;14.226;2022-10-30T01:11:13;54.93;;;10.67;;
75441;SDS011;64019;48.312;14.226;2022-10-30T01:13:39;25.57;;;10.13;;
75441;SDS011;64019;48.312;14.226;2022-10-30T01:18:44;22.43;;;10.27;;
75441;SDS011;64019;48.312;14.226;2022-10-30T01:24:22;21.80;;;9.87;;
75441;SDS011;64019;48.312;14.226;2022-10-30T01:29:43;22.33;;;9.00;;
75441;SDS011;64019;48.312;14.226;2022-10-30T01:35:04;18.17;;;9.23;;
75441;SDS011;64019;48.312;14.226;2022-10-30T01:38:01;21.03;;;9.93;;
75441;SDS011;64019;48.312;14.226;2022-10-30T01:40:38;16.90;;;9.23;;
75441;SDS011;64019;48.312;14.226;2022-10-30T01:43:04;18.33;;;9.13;;
75441;SDS011;64019;48.312;14.226;2022-10-30T01:45:34;23.63;;;10.63;;
75441;SDS011;64019;48.312;14.226;2022-10-30T02:01:30;17.97;;;9.57;;
75441;SDS011;64019;48.312;14.226;2022-10-30T02:03:58;23.23;;;9.97;;
75441;SDS011;64019;48.312;14.226;2022-10-30T02:06:24;28.90;;;10.40;;
75441;SDS011;64019;48.312;14.226;2022-10-30T02:08:53;19.80;;;9.80;;
75441;SDS011;64019;48.312;14.226;2022-10-30T02:11:20;18.13;;;9.83;;
75441;SDS011;64019;48.312;14.226;2022-10-30T02:13:48;18.27;;;9.23;;
75441;SDS011;64019;48.312;14.226;2022-10-30T02:16:16;17.77;;;9.13;;
75441;SDS011;64019;48.312;14.226;2022-10-30T02:18:42;22.27;;;9.77;;
75441;SDS011;64019;48.312;14.226;2022-10-30T02:21:07;20.83;;;9.83;;
75441;SDS011;64019;48.312;14.226;2022-10-30T02:23:33;20.83;;;9.10;;
75441;SDS011;64019;48.312;14.226;2022-10-30T02:25:59;19.33;;;9.50;;
75441;SDS011;64019;48.312;14.226;2022-10-30T02:28:25;26.17;;;10.20;;
75441;SDS011;64019;48.312;14.226;2022-10-30T02:30:51;46.60;;;10.23;;
75441;SDS011;64019;48.312;14.226;2022-10-30T02:33:16;27.17;;;10.20;;
75441;SDS011;64019;48.312;14.226;2022-10-30T02:35:42;27.47;;;9.90;;
75441;SDS011;64019;48.312;14.226;2022-10-30T02:38:08;23.17;;;9.63;;
75441;SDS011;64019;48.312;14.226;2022-10-30T02:40:33;37.93;;;10.33;;
75441;SDS011;64019;48.312;14.226;2022-10-30T02:42:59;27.97;;;9.63;;
75441;SDS011;64019;48.312;14.226;2022-10-30T02:45:25;39.50;;;10.47;;
75441;SDS011;64019;48.312;14.226;2022-10-30T02:47:50;60.07;;;9.90;;
75441;SDS011;64019;48.312;14.226;2022-10-30T02:50:16;61.90;;;10.17;;
75441;SDS011;64019;48.312;14.226;2022-10-30T02:52:41;46.10;;;9.33;;
75441;SDS011;64019;48.312;14.226;2022-10-30T02:55:07;48.00;;;8.53;;
75441;SDS011;64019;48.312;14.226;2022-10-30T02:57:33;16.60;;;7.43;;
75441;SDS011;64019;48.312;14.226;2022-10-30T02:59:59;20.23;;;8.90;;
75441;SDS011;64019;48.312;14.226;2022-10-30T03:02:25;27.83;;;8.80;;
75441;SDS011;64019;48.312;14.226;2022-10-30T03:04:51;41.13;;;9.80;;
75441;SDS011;64019;48.312;14.226;2022-10-30T03:07:16;19.87;;;9.53;;
75441;SDS011;64019;48.312;14.226;2022-10-30T03:09:42;59.70;;;9.83;;
75441;SDS011;64019;48.312;14.226;2022-10-30T03:12:08;33.73;;;9.97;;
75441;SDS011;64019;48.312;14.226;2022-10-30T03:14:33;19.97;;;9.67;;
75441;SDS011;64019;48.312;14.226;2022-10-30T03:16:59;22.03;;;9.07;;
75441;SDS011;64019;48.312;14.226;2022-10-30T03:19:25;19.73;;;9.47;;
75441;SDS011;64019;48.312;14.226;2022-10-30T03:21:52;23.87;;;9.57;;
75441;SDS011;64019;48.312;14.226;2022-10-30T03:24:18;28.50;;;9.17;;
75441;SDS011;64019;48.312;14.226;2022-10-30T03:26:43;25.50;;;9.47;;
75441;SDS011;64019;48.312;14.226;2022-10-30T03:29:10;34.60;;;9.27;;
75441;SDS011;64019;48.312;14.226;2022-10-30T03:31:36;24.93;;;8.97;;
75441;SDS011;64019;48.312;14.226;2022-10-30T03:34:01;27.67;;;9.57;;
75441;SDS011;64019;48.312;14.226;2022-10-30T03:36:27;29.00;;;9.17;;
75441;SDS011;64019;48.312;14.226;2022-10-30T03:38:53;26.30;;;8.70;;
75441;SDS011;64019;48.312;14.226;2022-10-30T03:41:19;18.53;;;8.37;;
75441;SDS011;64019;48.312;14.226;2022-10-30T03:43:44;31.70;;;9.83;;
75441;SDS011;64019;48.312;14.226;2022-10-30T03:46:10;27.80;;;8.97;;
75441;SDS011;64019;48.312;14.226;2022-10-30T03:48:35;32.40;;;8.97;;
75441;SDS011;64019;48.312;14.226;2022-10-30T03:51:02;23.43;;;8.87;;
75441;SDS011;64019;48.312;14.226;2022-10-30T03:53:28;21.73;;;8.90;;
75441;SDS011;64019;48.312;14.226;2022-10-30T03:56:01;25.13;;;9.07;;
75441;SDS011;64019;48.312;14.226;2022-10-30T03:58:28;23.70;;;7.47;;
75441;SDS011;64019;48.312;14.226;2022-10-30T04:00:54;37.57;;;8.03;;
75441;SDS011;64019;48.312;14.226;2022-10-30T04:03:25;24.03;;;7.77;;
75441;SDS011;64019;48.312;14.226;2022-10-30T04:05:51;35.27;;;7.93;;
75441;SDS011;64019;48.312;14.226;2022-10-30T04:08:17;19.63;;;7.80;;
75441;SDS011;64019;48.312;14.226;2022-10-30T04:10:44;17.57;;;8.57;;
75441;SDS011;64019;48.312;14.226;2022-10-30T04:13:11;20.83;;;8.70;;
75441;SDS011;64019;48.312;14.226;2022-10-30T04:15:38;20.37;;;9.03;;
75441;SDS011;64019;48.312;14.226;2022-10-30T04:18:05;26.87;;;8.00;;
75441;SDS011;64019;48.312;14.226;2022-10-30T04:20:31;17.20;;;7.57;;
75441;SDS011;64019;48.312;14.226;2022-10-30T04:25:27;13.80;;;7.30;;
75441;SDS011;64019;48.312;14.226;2022-10-30T04:27:53;14.43;;;7.67;;
75441;SDS011;64019;48.312;14.226;2022-10-30T04:30:20;20.17;;;8.17;;
75441;SDS011;64019;48.312;14.226;2022-10-30T04:32:48;17.70;;;8.33;;
75441;SDS011;64019;48.312;14.226;2022-10-30T04:35:19;23.73;;;7.70;;
75441;SDS011;64019;48.312;14.226;2022-10-30T04:37:53;27.77;;;8.60;;
75441;SDS011;64019;48.312;14.226;2022-10-30T04:40:23;31.90;;;8.20;;
75441;SDS011;64019;48.312;14.226;2022-10-30T04:42:50;27.27;;;8.33;;
75441;SDS011;64019;48.312;14.226;2022-10-30T04:45:16;21.97;;;8.03;;
75441;SDS011;64019;48.312;14.226;2022-10-30T04:47:42;17.20;;;7.87;;
75441;SDS011;64019;48.312;14.226;2022-10-30T04:50:08;20.80;;;8.03;;
75441;SDS011;64019;48.312;14.226;2022-10-30T04:52:34;34.20;;;8.37;;
75441;SDS011;64019;48.312;14.226;2022-10-30T04:55:00;16.23;;;7.33;;
75441;SDS011;64019;48.312;14.226;2022-10-30T04:57:26;38.67;;;8.53;;
75441;SDS011;64019;48.312;14.226;2022-10-30T04:59:51;16.10;;;7.37;;
75441;SDS011;64019;48.312;14.226;2022-10-30T05:02:17;24.93;;;7.50;;
75441;SDS011;64019;48.312;14.226;2022-10-30T05:04:45;25.97;;;7.40;;
75441;SDS011;64019;48.312;14.226;2022-10-30T05:07:11;25.23;;;7.60;;
75441;SDS011;64019;48.312;14.226;2022-10-30T05:09:37;31.50;;;6.73;;
75441;SDS011;64019;48.312;14.226;2022-10-30T05:12:04;16.37;;;7.20;;
75441;SDS011;64019;48.312;14.226;2022-10-30T05:14:30;42.03;;;7.53;;
75441;SDS011;64019;48.312;14.226;2022-10-30T05:16:57;12.77;;;7.77;;
75441;SDS011;64019;48.312;14.226;2022-10-30T05:19:22;17.47;;;7.50;;
75441;SDS011;64019;48.312;14.226;2022-10-30T05:21:48;31.50;;;7.80;;
75441;SDS011;64019;48.312;14.226;2022-10-30T05:24:14;18.80;;;8.17;;
75441;SDS011;64019;48.312;14.226;2022-10-30T05:26:39;36.97;;;8.40;;
75441;SDS011;64019;48.312;14.226;2022-10-30T05:29:05;31.17;;;8.10;;
75441;SDS011;64019;48.312;14.226;2022-10-30T05:31:31;33.47;;;7.10;;
75441;SDS011;64019;48.312;14.226;2022-10-30T05:33:57;23.60;;;7.57;;
75441;SDS011;64019;48.312;14.226;2022-10-30T05:36:22;23.27;;;6.87;;
75441;SDS011;64019;48.312;14.226;2022-10-30T05:38:48;22.77;;;7.57;;
75441;SDS011;64019;48.312;14.226;2022-10-30T05:41:13;27.83;;;7.57;;
75441;SDS011;64019;48.312;14.226;2022-10-30T05:43:39;25.53;;;7.40;;
75441;SDS011;64019;48.312;14.226;2022-10-30T05:46:05;20.27;;;8.77;;
75441;SDS011;64019;48.312;14.226;2022-10-30T05:48:30;26.60;;;8.77;;
75441;SDS011;64019;48.312;14.226;2022-10-30T05:50:56;20.10;;;8.43;;
75441;SDS011;64019;48.312;14.226;2022-10-30T05:53:22;32.27;;;7.50;;
75441;SDS011;64019;48.312;14.226;2022-10-30T05:55:48;22.20;;;6.80;;
75441;SDS011;64019;48.312;14.226;2022-10-30T05:58:14;24.97;;;8.60;;
75441;SDS011;64019;48.312;14.226;2022-10-30T06:00:40;25.30;;;10.03;;
75441;SDS011;64019;48.312;14.226;2022-10-30T06:03:11;20.73;;;7.43;;
75441;SDS011;64019;48.312;14.226;2022-10-30T06:05:37;38.33;;;8.37;;
75441;SDS011;64019;48.312;14.226;2022-10-30T06:08:04;53.10;;;8.23;;
75441;SDS011;64019;48.312;14.226;2022-10-30T06:10:31;91.43;;;8.87;;
75441;SDS011;64019;48.312;14.226;2022-10-30T06:12:58;50.47;;;8.43;;
75441;SDS011;64019;48.312;14.226;2022-10-30T06:15:25;26.50;;;7.57;;
75441;SDS011;64019;48.312;14.226;2022-10-30T06:17:52;54.63;;;8.60;;
75441;SDS011;64019;48.312;14.226;2022-10-30T06:20:18;51.23;;;8.60;;
75441;SDS011;64019;48.312;14.226;2022-10-30T06:22:52;30.53;;;7.93;;
75441;SDS011;64019;48.312;14.226;2022-10-30T06:25:21;61.93;;;9.00;;
75441;SDS011;64019;48.312;14.226;2022-10-30T06:27:47;30.20;;;7.60;;
75441;SDS011;64019;48.312;14.226;2022-10-30T06:30:13;18.03;;;8.40;;
75441;SDS011;64019;48.312;14.226;2022-10-30T06:32:38;43.67;;;8.47;;
75441;SDS011;64019;48.312;14.226;2022-10-30T06:35:04;38.37;;;8.30;;
75441;SDS011;64019;48.312;14.226;2022-10-30T06:37:30;37.30;;;8.50;;
75441;SDS011;64019;48.312;14.226;2022-10-30T06:39:55;15.17;;;7.60;;
75441;SDS011;64019;48.312;14.226;2022-10-30T06:42:21;29.50;;;7.03;;
75441;SDS011;64019;48.312;14.226;2022-10-30T06:44:47;21.67;;;7.70;;
75441;SDS011;64019;48.312;14.226;2022-10-30T06:47:13;49.87;;;8.37;;
75441;SDS011;64019;48.312;14.226;2022-10-30T06:49:39;20.07;;;7.60;;
75441;SDS011;64019;48.312;14.226;2022-10-30T06:52:05;16.00;;;7.43;;
75441;SDS011;64019;48.312;14.226;2022-10-30T06:54:30;20.77;;;7.33;;
75441;SDS011;64019;48.312;14.226;2022-10-30T06:56:56;20.97;;;6.97;;
75441;SDS011;64019;48.312;14.226;2022-10-30T06:59:22;20.90;;;8.73;;
75441;SDS011;64019;48.312;14.226;2022-10-30T07:01:48;52.63;;;7.83;;
75441;SDS011;64019;48.312;14.226;2022-10-30T07:04:14;24.67;;;7.77;;
75441;SDS011;64019;48.312;14.226;2022-10-30T07:06:39;20.33;;;7.67;;
75441;SDS011;64019;48.312;14.226;2022-10-30T07:09:05;25.60;;;6.97;;
75441;SDS011;64019;48.312;14.226;2022-10-30T07:11:31;25.67;;;7.20;;
75441;SDS011;64019;48.312;14.226;2022-10-30T07:13:56;23.07;;;7.17;;
75441;SDS011;64019;48.312;14.226;2022-10-30T07:16:22;14.43;;;7.13;;
75441;SDS011;64019;48.312;14.226;2022-10-30T07:18:48;18.63;;;7.73;;
75441;SDS011;64019;48.312;14.226;2022-10-30T07:21:13;24.53;;;7.07;;
75441;SDS011;64019;48.312;14.226;2022-10-30T07:23:39;11.37;;;7.30;;
75441;SDS011;64019;48.312;14.226;2022-10-30T07:26:05;11.73;;;7.73;;
75441;SDS011;64019;48.312;14.226;2022-10-30T07:28:31;17.27;;;7.37;;
75441;SDS011;64019;48.312;14.226;2022-10-30T07:30:57;11.83;;;7.53;;
75441;SDS011;64019;48.312;14.226;2022-10-30T07:33:23;12.97;;;7.67;;
75441;SDS011;64019;48.312;14.226;2022-10-30T07:35:49;17.00;;;8.53;;
75441;SDS011;64019;48.312;14.226;2022-10-30T07:38:15;13.73;;;7.53;;
75441;SDS011;64019;48.312;14.226;2022-10-30T07:40:42;12.63;;;6.87;;
75441;SDS011;64019;48.312;14.226;2022-10-30T07:43:08;13.77;;;7.93;;
75441;SDS011;64019;48.312;14.226;2022-10-30T07:45:37;12.90;;;7.53;;
75441;SDS011;64019;48.312;14.226;2022-10-30T07:48:03;14.97;;;7.93;;
75441;SDS011;64019;48.312;14.226;2022-10-30T07:50:29;12.43;;;7.40;;
75441;SDS011;64019;48.312;14.226;2022-10-30T07:52:55;14.97;;;8.73;;
75441;SDS011;64019;48.312;14.226;2022-10-30T07:55:20;18.90;;;9.03;;
75441;SDS011;64019;48.312;14.226;2022-10-30T07:57:46;17.23;;;8.80;;
75441;SDS011;64019;48.312;14.226;2022-10-30T08:00:13;17.30;;;9.07;;
75441;SDS011;64019;48.312;14.226;2022-10-30T08:02:39;17.70;;;8.60;;
75441;SDS011;64019;48.312;14.226;2022-10-30T08:05:05;17.70;;;9.57;;
75441;SDS011;64019;48.312;14.226;2022-10-30T08:07:32;16.67;;;9.50;;
75441;SDS011;64019;48.312;14.226;2022-10-30T08:09:59;17.83;;;9.07;;
75441;SDS011;64019;48.312;14.226;2022-10-30T08:12:25;12.63;;;8.03;;
75441;SDS011;64019;48.312;14.226;2022-10-30T08:14:51;15.20;;;8.60;;
75441;SDS011;64019;48.312;14.226;2022-10-30T08:17:17;17.40;;;8.17;;
75441;SDS011;64019;48.312;14.226;2022-10-30T08:19:43;18.87;;;8.80;;
75441;SDS011;64019;48.312;14.226;2022-10-30T08:22:10;15.57;;;8.13;;
75441;SDS011;64019;48.312;14.226;2022-10-30T08:24:35;17.60;;;8.77;;
75441;SDS011;64019;48.312;14.226;2022-10-30T08:27:01;16.27;;;9.73;;
75441;SDS011;64019;48.312;14.226;2022-10-30T08:29:28;22.30;;;10.40;;
75441;SDS011;64019;48.312;14.226;2022-10-30T08:31:54;25.43;;;11.40;;
75441;SDS011;64019;48.312;14.226;2022-10-30T08:34:19;26.53;;;11.03;;
75441;SDS011;64019;48.312;14.226;2022-10-30T08:36:49;28.87;;;13.40;;
75441;SDS011;64019;48.312;14.226;2022-10-30T08:39:18;27.70;;;15.03;;
75441;SDS011;64019;48.312;14.226;2022-10-30T08:41:44;29.47;;;14.63;;
75441;SDS011;64019;48.312;14.226;2022-10-30T08:44:10;30.43;;;15.07;;
75441;SDS011;64019;48.312;14.226;2022-10-30T08:46:36;32.97;;;15.63;;
75441;SDS011;64019;48.312;14.226;2022-10-30T08:49:02;39.07;;;16.13;;
75441;SDS011;64019;48.312;14.226;2022-10-30T08:51:30;34.60;;;15.93;;
75441;SDS011;64019;48.312;14.226;2022-10-30T08:53:57;37.63;;;16.90;;
75441;SDS011;64019;48.312;14.226;2022-10-30T08:56:23;36.23;;;18.03;;
75441;SDS011;64019;48.312;14.226;2022-10-30T08:58:50;38.37;;;16.57;;
75441;SDS011;64019;48.312;14.226;2022-10-30T09:01:16;44.27;;;19.07;;
75441;SDS011;64019;48.312;14.226;2022-10-30T09:03:43;41.17;;;17.73;;
75441;SDS011;64019;48.312;14.226;2022-10-30T09:06:09;30.87;;;15.73;;
75441;SDS011;64019;48.312;14.226;2022-10-30T09:08:35;41.07;;;17.17;;
75441;SDS011;64019;48.312;14.226;2022-10-30T09:11:01;43.77;;;18.23;;
75441;SDS011;64019;48.312;14.226;2022-10-30T09:13:26;47.03;;;19.40;;
75441;SDS011;64019;48.312;14.226;2022-10-30T09:15:52;49.47;;;20.73;;
75441;SDS011;64019;48.312;14.226;2022-10-30T09:18:18;53.97;;;19.07;;
75441;SDS011;64019;48.312;14.226;2022-10-30T09:20:47;48.73;;;20.03;;
75441;SDS011;64019;48.312;14.226;2022-10-30T09:23:13;41.87;;;18.47;;
75441;SDS011;64019;48.312;14.226;2022-10-30T09:25:39;49.10;;;19.77;;
75441;SDS011;64019;48.312;14.226;2022-10-30T09:28:04;43.63;;;19.13;;
75441;SDS011;64019;48.312;14.226;2022-10-30T09:30:30;43.60;;;18.53;;
75441;SDS011;64019;48.312;14.226;2022-10-30T09:32:56;49.53;;;19.60;;
75441;SDS011;64019;48.312;14.226;2022-10-30T09:35:24;36.30;;;17.70;;
75441;SDS011;64019;48.312;14.226;2022-10-30T09:37:50;41.17;;;18.53;;
75441;SDS011;64019;48.312;14.226;2022-10-30T09:40:21;45.27;;;18.40;;
75441;SDS011;64019;48.312;14.226;2022-10-30T09:43:14;39.57;;;16.70;;
75441;SDS011;64019;48.312;14.226;2022-10-30T09:51:37;28.13;;;12.10;;
75441;SDS011;64019;48.312;14.226;2022-10-30T10:05:42;21.77;;;12.10;;
75441;SDS011;64019;48.312;14.226;2022-10-30T10:08:16;22.77;;;12.10;;
75441;SDS011;64019;48.312;14.226;2022-10-30T10:10:53;19.30;;;11.63;;
75441;SDS011;64019;48.312;14.226;2022-10-30T10:13:47;19.70;;;12.13;;
75441;SDS011;64019;48.312;14.226;2022-10-30T10:16:26;22.77;;;11.77;;
75441;SDS011;64019;48.312;14.226;2022-10-30T10:21:32;32.80;;;14.13;;
75441;SDS011;64019;48.312;14.226;2022-10-30T10:24:12;27.87;;;13.10;;
75441;SDS011;64019;48.312;14.226;2022-10-30T10:26:49;26.70;;;13.07;;
75441;SDS011;64019;48.312;14.226;2022-10-30T10:35:01;25.37;;;13.53;;
75441;SDS011;64019;48.312;14.226;2022-10-30T10:37:52;30.30;;;14.57;;
75441;SDS011;64019;48.312;14.226;2022-10-30T10:43:24;24.30;;;13.97;;
75441;SDS011;64019;48.312;14.226;2022-10-30T10:46:23;27.63;;;14.33;;
75441;SDS011;64019;48.312;14.226;2022-10-30T10:49:09;28.63;;;14.67;;
75441;SDS011;64019;48.312;14.226;2022-10-30T10:51:55;40.23;;;15.80;;
75441;SDS011;64019;48.312;14.226;2022-10-30T10:54:30;31.70;;;14.77;;
75441;SDS011;64019;48.312;14.226;2022-10-30T10:57:05;34.03;;;15.77;;
75441;SDS011;64019;48.312;14.226;2022-10-30T10:59:40;26.50;;;15.60;;
75441;SDS011;64019;48.312;14.226;2022-10-30T11:05:07;30.87;;;14.63;;
75441;SDS011;64019;48.312;14.226;2022-10-30T11:07:45;31.63;;;15.17;;
75441;SDS011;64019;48.312;14.226;2022-10-30T11:10:14;31.07;;;14.97;;
75441;SDS011;64019;48.312;14.226;2022-10-30T11:12:41;33.70;;;15.90;;
75441;SDS011;64019;48.312;14.226;2022-10-30T11:23:31;38.40;;;16.37;;
75441;SDS011;64019;48.312;14.226;2022-10-30T11:32:00;38.17;;;14.70;;
75441;SDS011;64019;48.312;14.226;2022-10-30T11:34:34;33.03;;;14.97;;
75441;SDS011;64019;48.312;14.226;2022-10-30T11:37:01;32.30;;;15.80;;
75441;SDS011;64019;48.312;14.226;2022-10-30T11:39:29;38.37;;;15.57;;
75441;SDS011;64019;48.312;14.226;2022-10-30T11:42:00;36.87;;;14.83;;
75441;SDS011;64019;48.312;14.226;2022-10-30T11:47:09;31.27;;;15.33;;
75441;SDS011;64019;48.312;14.226;2022-10-30T11:49:52;33.40;;;14.43;;
75441;SDS011;64019;48.312;14.226;2022-10-30T11:52:22;33.57;;;15.00;;
75441;SDS011;64019;48.312;14.226;2022-10-30T11:55:00;35.70;;;13.90;;
75441;SDS011;64019;48.312;14.226;2022-10-30T11:57:43;27.23;;;14.60;;
75441;SDS011;64019;48.312;14.226;2022-10-30T12:00:17;30.70;;;13.77;;
75441;SDS011;64019;48.312;14.226;2022-10-30T12:02:46;35.03;;;12.20;;
75441;SDS011;64019;48.312;14.226;2022-10-30T12:08:14;24.97;;;11.80;;
75441;SDS011;64019;48.312;14.226;2022-10-30T12:10:45;26.23;;;10.63;;
75441;SDS011;64019;48.312;14.226;2022-10-30T12:13:18;23.83;;;9.60;;
75441;SDS011;64019;48.312;14.226;2022-10-30T12:15:46;22.80;;;10.03;;
75441;SDS011;64019;48.312;14.226;2022-10-30T12:18:21;24.47;;;10.00;;
75441;SDS011;64019;48.312;14.226;2022-10-30T12:20:51;28.90;;;10.77;;
75441;SDS011;64019;48.312;14.226;2022-10-30T12:23:21;27.50;;;10.57;;
75441;SDS011;64019;48.312;14.226;2022-10-30T12:25:53;24.07;;;10.03;;
75441;SDS011;64019;48.312;14.226;2022-10-30T12:28:24;27.67;;;9.73;;
75441;SDS011;64019;48.312;14.226;2022-10-30T12:30:54;20.17;;;8.63;;
75441;SDS011;64019;48.312;14.226;2022-10-30T12:33:44;20.97;;;9.13;;
75441;SDS011;64019;48.312;14.226;2022-10-30T12:36:23;19.13;;;9.13;;
75441;SDS011;64019;48.312;14.226;2022-10-30T12:38:59;25.73;;;10.30;;
75441;SDS011;64019;48.312;14.226;2022-10-30T12:41:33;28.20;;;9.50;;
75441;SDS011;64019;48.312;14.226;2022-10-30T12:46:53;17.67;;;8.17;;
75441;SDS011;64019;48.312;14.226;2022-10-30T12:54:47;27.93;;;9.30;;
75441;SDS011;64019;48.312;14.226;2022-10-30T12:57:16;27.33;;;11.00;;
75441;SDS011;64019;48.312;14.226;2022-10-30T13:00:02;23.87;;;9.97;;
75441;SDS011;64019;48.312;14.226;2022-10-30T13:02:39;23.50;;;11.50;;
75441;SDS011;64019;48.312;14.226;2022-10-30T13:08:03;30.63;;;10.80;;
75441;SDS011;64019;48.312;14.226;2022-10-30T13:10:52;31.60;;;10.23;;
75441;SDS011;64019;48.312;14.226;2022-10-30T13:13:32;26.90;;;11.00;;
75441;SDS011;64019;48.312;14.226;2022-10-30T13:16:17;21.97;;;10.10;;
75441;SDS011;64019;48.312;14.226;2022-10-30T13:18:50;29.83;;;11.77;;
75441;SDS011;64019;48.312;14.226;2022-10-30T13:29:43;27.03;;;12.33;;
75441;SDS011;64019;48.312;14.226;2022-10-30T13:41:05;42.13;;;16.03;;
75441;SDS011;64019;48.312;14.226;2022-10-30T13:52:05;54.67;;;20.50;;
75441;SDS011;64019;48.312;14.226;2022-10-30T13:55:06;55.43;;;19.20;;
75441;SDS011;64019;48.312;14.226;2022-10-30T14:01:08;46.97;;;19.50;;
75441;SDS011;64019;48.312;14.226;2022-10-30T14:09:18;50.97;;;19.90;;
75441;SDS011;64019;48.312;14.226;2022-10-30T14:15:25;53.60;;;19.83;;
75441;SDS011;64019;48.312;14.226;2022-10-30T14:20:43;42.70;;;18.57;;
75441;SDS011;64019;48.312;14.226;2022-10-30T14:23:20;48.10;;;19.40;;
75441;SDS011;64019;48.312;14.226;2022-10-30T14:28:49;50.00;;;20.13;;
75441;SDS011;64019;48.312;14.226;2022-10-30T14:31:15;44.73;;;18.73;;
75441;SDS011;64019;48.312;14.226;2022-10-30T14:36:20;51.80;;;18.57;;
75441;SDS011;64019;48.312;14.226;2022-10-30T14:39:29;45.73;;;18.47;;
75441;SDS011;64019;48.312;14.226;2022-10-30T14:46:55;59.67;;;20.53;;
75441;SDS011;64019;48.312;14.226;2022-10-30T15:21:03;39.87;;;17.83;;
75441;SDS011;64019;48.312;14.226;2022-10-30T15:23:31;34.70;;;16.17;;
75441;SDS011;64019;48.312;14.226;2022-10-30T15:26:06;46.00;;;15.83;;
75441;SDS011;64019;48.312;14.226;2022-10-30T15:28:41;38.23;;;15.20;;
75441;SDS011;64019;48.312;14.226;2022-10-30T15:31:13;30.70;;;14.30;;
75441;SDS011;64019;48.312;14.226;2022-10-30T15:33:49;35.43;;;13.67;;
75441;SDS011;64019;48.312;14.226;2022-10-30T15:36:19;28.80;;;12.77;;
75441;SDS011;64019;48.312;14.226;2022-10-30T15:39:01;29.60;;;13.27;;
75441;SDS011;64019;48.312;14.226;2022-10-30T15:41:28;29.50;;;13.60;;
75441;SDS011;64019;48.312;14.226;2022-10-30T15:43:54;29.97;;;13.27;;
75441;SDS011;64019;48.312;14.226;2022-10-30T15:46:23;42.10;;;18.33;;
75441;SDS011;64019;48.312;14.226;2022-10-30T15:48:48;50.30;;;21.33;;
75441;SDS011;64019;48.312;14.226;2022-10-30T15:51:19;47.80;;;19.03;;
75441;SDS011;64019;48.312;14.226;2022-10-30T15:53:47;29.70;;;15.93;;
75441;SDS011;64019;48.312;14.226;2022-10-30T15:56:25;38.10;;;15.67;;
75441;SDS011;64019;48.312;14.226;2022-10-30T15:59:00;34.60;;;15.40;;
75441;SDS011;64019;48.312;14.226;2022-10-30T16:01:32;36.83;;;14.50;;
75441;SDS011;64019;48.312;14.226;2022-10-30T16:04:02;35.27;;;14.60;;
75441;SDS011;64019;48.312;14.226;2022-10-30T16:06:29;30.67;;;13.73;;
75441;SDS011;64019;48.312;14.226;2022-10-30T16:08:56;29.07;;;14.47;;
75441;SDS011;64019;48.312;14.226;2022-10-30T16:11:22;32.23;;;15.60;;
75441;SDS011;64019;48.312;14.226;2022-10-30T16:13:49;36.40;;;16.67;;
75441;SDS011;64019;48.312;14.226;2022-10-30T16:16:34;40.67;;;18.23;;
75441;SDS011;64019;48.312;14.226;2022-10-30T16:19:00;42.30;;;17.60;;
75441;SDS011;64019;48.312;14.226;2022-10-30T16:21:28;46.47;;;19.17;;
75441;SDS011;64019;48.312;14.226;2022-10-30T16:23:56;53.17;;;23.53;;
75441;SDS011;64019;48.312;14.226;2022-10-30T16:26:36;53.10;;;23.13;;
75441;SDS011;64019;48.312;14.226;2022-10-30T16:31:46;65.20;;;27.30;;
75441;SDS011;64019;48.312;14.226;2022-10-30T16:34:32;69.57;;;30.70;;
75441;SDS011;64019;48.312;14.226;2022-10-30T16:37:00;62.63;;;26.73;;
75441;SDS011;64019;48.312;14.226;2022-10-30T16:39:30;59.07;;;28.47;;
75441;SDS011;64019;48.312;14.226;2022-10-30T16:41:58;66.47;;;28.67;;
75441;SDS011;64019;48.312;14.226;2022-10-30T16:44:25;60.93;;;27.37;;
75441;SDS011;64019;48.312;14.226;2022-10-30T16:49:54;63.10;;;26.33;;
75441;SDS011;64019;48.312;14.226;2022-10-30T16:52:29;61.63;;;25.80;;
75441;SDS011;64019;48.312;14.226;2022-10-30T16:55:04;58.07;;;26.57;;
75441;SDS011;64019;48.312;14.226;2022-10-30T16:57:36;59.63;;;25.33;;
75441;SDS011;64019;48.312;14.226;2022-10-30T17:00:19;60.70;;;25.63;;
75441;SDS011;64019;48.312;14.226;2022-10-30T17:08:26;59.00;;;25.07;;
75441;SDS011;64019;48.312;14.226;2022-10-30T17:10:55;52.97;;;24.77;;
75441;SDS011;64019;48.312;14.226;2022-10-30T17:13:30;61.50;;;25.37;;
75441;SDS011;64019;48.312;14.226;2022-10-30T17:15:57;60.13;;;23.13;;
75441;SDS011;64019;48.312;14.226;2022-10-30T17:18:27;47.80;;;22.40;;
75441;SDS011;64019;48.312;14.226;2022-10-30T17:21:05;54.07;;;23.37;;
75441;SDS011;64019;48.312;14.226;2022-10-30T17:23:44;55.37;;;22.00;;
75441;SDS011;64019;48.312;14.226;2022-10-30T17:26:11;50.17;;;23.03;;
75441;SDS011;64019;48.312;14.226;2022-10-30T17:28:37;45.77;;;22.13;;
75441;SDS011;64019;48.312;14.226;2022-10-30T17:33:44;52.97;;;23.43;;
75441;SDS011;64019;48.312;14.226;2022-10-30T17:36:10;57.73;;;23.17;;
75441;SDS011;64019;48.312;14.226;2022-10-30T17:38:36;51.13;;;23.73;;
75441;SDS011;64019;48.312;14.226;2022-10-30T17:41:02;50.23;;;23.03;;